createdAt,value
2023-04-05T00:01:53.466Z,12.20
2023-04-05T00:04:20.693Z,12.70
2023-04-05T00:06:52.430Z,11.00
2023-04-05T00:09:20.730Z,10.90
2023-04-05T00:11:47.995Z,11.53
2023-04-05T00:14:14.863Z,11.13
2023-04-05T00:16:42.351Z,11.30
2023-04-05T00:19:10.987Z,9.93
2023-04-05T00:21:39.212Z,14.97
2023-04-05T00:24:05.911Z,15.83
2023-04-05T00:26:32.276Z,9.97
2023-04-05T00:28:59.035Z,10.77
2023-04-05T00:31:25.414Z,15.13
2023-04-05T00:33:51.756Z,12.07
2023-04-05T00:36:20.459Z,14.10
2023-04-05T00:38:49.194Z,12.40
2023-04-05T00:41:16.196Z,11.37
2023-04-05T00:43:42.729Z,10.57
2023-04-05T00:46:09.581Z,11.53
2023-04-05T00:48:36.417Z,12.57
2023-04-05T00:51:03.688Z,15.07
2023-04-05T00:53:30.256Z,10.07
2023-04-05T00:55:57.795Z,12.17
2023-04-05T00:58:24.359Z,16.43
2023-04-05T01:01:13.422Z,10.87
2023-04-05T01:03:44.781Z,11.27
2023-04-05T01:06:17.374Z,18.33
2023-04-05T01:09:02.472Z,11.63
2023-04-05T01:11:32.283Z,11.30
2023-04-05T01:14:02.389Z,15.03
2023-04-05T01:16:29.243Z,10.00
2023-04-05T01:18:58.972Z,15.80
2023-04-05T01:21:49.929Z,9.93
2023-04-05T01:24:47.297Z,11.17
2023-04-05T01:27:21.075Z,9.93
2023-04-05T01:29:51.310Z,10.97
2023-04-05T01:32:30.284Z,10.93
2023-04-05T01:35:18.244Z,18.00
2023-04-05T01:37:49.767Z,10.83
2023-04-05T01:40:16.637Z,10.87
2023-04-05T01:42:46.474Z,11.17
2023-04-05T01:45:12.825Z,11.27
2023-04-05T01:47:39.221Z,10.07
2023-04-05T01:50:06.533Z,12.03
2023-04-05T01:52:33.048Z,10.30
2023-04-05T01:54:59.363Z,10.87
2023-04-05T01:57:25.734Z,12.80
2023-04-05T01:59:52.038Z,12.90
2023-04-05T02:02:18.375Z,15.90
2023-04-05T02:04:44.756Z,14.07
2023-04-05T02:07:11.089Z,11.87
2023-04-05T02:09:37.461Z,14.10
2023-04-05T02:12:04.025Z,11.17
2023-04-05T02:14:30.337Z,11.57
2023-04-05T02:16:56.702Z,10.03
2023-04-05T02:19:25.851Z,10.67
2023-04-05T02:21:53.794Z,9.90
2023-04-05T02:24:20.279Z,13.03
2023-04-05T02:26:46.644Z,12.70
2023-04-05T02:29:12.996Z,15.30
2023-04-05T02:31:39.418Z,14.10
2023-04-05T02:34:09.037Z,16.53
2023-04-05T02:36:35.449Z,11.03
2023-04-05T02:39:02.683Z,12.53
2023-04-05T02:41:29.428Z,11.63
2023-04-05T02:43:55.763Z,14.07
2023-04-05T02:46:22.154Z,11.30
2023-04-05T02:48:48.557Z,12.60
2023-04-05T02:51:16.592Z,14.20
2023-04-05T02:53:44.805Z,12.10
2023-04-05T02:56:14.216Z,12.63
2023-04-05T02:58:43.500Z,11.57
2023-04-05T03:01:10.460Z,14.27
2023-04-05T03:03:37.475Z,12.20
2023-04-05T03:06:10.004Z,12.60
2023-04-05T03:08:46.058Z,17.77
2023-04-05T03:11:15.258Z,14.03
2023-04-05T03:13:46.442Z,14.87
2023-04-05T03:16:24.150Z,15.53
2023-04-05T03:18:50.497Z,14.23
2023-04-05T03:21:18.012Z,11.77
2023-04-05T03:23:53.458Z,12.10
2023-04-05T03:26:26.151Z,12.37
2023-04-05T03:28:53.325Z,12.40
2023-04-05T03:31:29.249Z,12.07
2023-04-05T03:33:58.418Z,12.33
2023-04-05T03:36:41.762Z,18.27
2023-04-05T03:39:14.319Z,21.97
2023-04-05T03:41:41.045Z,17.33
2023-04-05T03:44:09.217Z,13.10
2023-04-05T03:46:37.893Z,14.27
2023-04-05T03:49:07.175Z,15.77
2023-04-05T03:51:33.648Z,24.20
2023-04-05T03:54:00.234Z,12.03
2023-04-05T03:56:32.450Z,14.57
2023-04-05T03:59:04.309Z,19.73
2023-04-05T04:01:31.659Z,16.60
2023-04-05T04:04:00.137Z,14.37
2023-04-05T04:06:26.992Z,12.50
2023-04-05T04:08:53.390Z,13.00
2023-04-05T04:11:19.710Z,19.67
2023-04-05T04:13:47.132Z,17.67
2023-04-05T04:16:20.632Z,18.93
2023-04-05T04:19:13.165Z,13.67
2023-04-05T04:22:01.537Z,17.17
2023-04-05T04:24:50.500Z,13.17
2023-04-05T04:27:36.876Z,14.97
2023-04-05T04:30:15.880Z,14.23
2023-04-05T04:32:58.712Z,14.80
2023-04-05T04:35:47.059Z,23.00
2023-04-05T04:38:34.847Z,19.13
2023-04-05T04:41:26.522Z,13.97
2023-04-05T04:44:14.535Z,12.50
2023-04-05T04:46:59.490Z,23.30
2023-04-05T04:49:41.522Z,17.07
2023-04-05T04:52:07.956Z,12.97
2023-04-05T04:54:36.809Z,17.63
2023-04-05T04:57:03.261Z,23.87
2023-04-05T04:59:30.003Z,17.07
2023-04-05T05:01:56.487Z,14.90
2023-04-05T05:04:22.893Z,18.50
2023-04-05T05:06:53.920Z,12.57
2023-04-05T05:09:20.633Z,16.97
2023-04-05T05:11:52.161Z,16.33
2023-04-05T05:14:18.510Z,12.63
2023-04-05T05:16:45.021Z,22.07
2023-04-05T05:19:11.422Z,16.87
2023-04-05T05:21:43.190Z,14.30
2023-04-05T05:24:09.978Z,12.80
2023-04-05T05:26:37.939Z,15.60
2023-04-05T05:29:04.275Z,15.27
2023-04-05T05:31:33.673Z,15.70
2023-04-05T05:34:00.271Z,19.20
2023-04-05T05:36:27.766Z,17.90
2023-04-05T05:38:54.623Z,16.87
2023-04-05T05:41:23.866Z,15.57
2023-04-05T05:43:50.337Z,21.77
2023-04-05T05:46:17.986Z,28.07
2023-04-05T05:48:45.497Z,31.83
2023-04-05T05:51:11.911Z,17.83
2023-04-05T05:53:39.478Z,21.13
2023-04-05T05:56:06.388Z,27.33
2023-04-05T05:58:32.957Z,18.27
2023-04-05T06:00:59.891Z,20.53
2023-04-05T06:03:26.546Z,29.13
2023-04-05T06:05:54.009Z,27.13
2023-04-05T06:08:20.395Z,26.23
2023-04-05T06:10:46.708Z,25.37
2023-04-05T06:13:13.056Z,25.00
2023-04-05T06:15:39.468Z,21.43
2023-04-05T06:18:05.826Z,24.57
2023-04-05T06:20:32.234Z,21.30
2023-04-05T06:22:58.574Z,27.70
2023-04-05T06:25:24.966Z,22.80
2023-04-05T06:27:51.300Z,23.57
2023-04-05T06:30:17.615Z,26.93
2023-04-05T06:32:43.960Z,25.47
2023-04-05T06:35:10.456Z,21.50
2023-04-05T06:37:36.806Z,28.07
2023-04-05T06:40:03.867Z,32.23
2023-04-05T06:42:30.393Z,22.83
2023-04-05T06:45:04.198Z,20.00
2023-04-05T06:47:37.896Z,27.90
2023-04-05T06:50:06.607Z,23.73
2023-04-05T06:52:33.412Z,26.73
2023-04-05T06:54:59.818Z,25.50
2023-04-05T06:57:26.973Z,20.00
2023-04-05T06:59:54.522Z,29.63
2023-04-05T07:02:21.316Z,25.03
2023-04-05T07:04:48.238Z,24.17
2023-04-05T07:07:14.708Z,25.43
2023-04-05T07:09:41.180Z,23.90
2023-04-05T07:12:08.192Z,22.83
2023-04-05T07:14:36.930Z,31.20
2023-04-05T07:17:08.510Z,26.97
2023-04-05T07:19:34.944Z,20.47
2023-04-05T07:22:01.500Z,23.23
2023-04-05T07:24:27.981Z,39.87
2023-04-05T07:26:54.307Z,37.50
2023-04-05T07:29:20.790Z,20.03
2023-04-05T07:31:47.134Z,24.30
2023-04-05T07:34:13.552Z,24.20
2023-04-05T07:36:40.140Z,28.40
2023-04-05T07:39:06.498Z,19.77
2023-04-05T07:41:35.204Z,23.90
2023-04-05T07:44:01.681Z,23.17
2023-04-05T07:46:28.165Z,16.50
2023-04-05T07:48:54.593Z,17.90
2023-04-05T07:51:21.538Z,15.50
2023-04-05T07:53:48.751Z,14.17
2023-04-05T07:56:15.560Z,14.37
2023-04-05T07:58:42.324Z,14.83
2023-04-05T08:01:10.499Z,17.13
2023-04-05T08:03:40.172Z,17.03
2023-04-05T08:06:14.599Z,18.17
2023-04-05T08:08:41.391Z,12.77
2023-04-05T08:11:07.795Z,18.20
2023-04-05T08:13:34.203Z,12.30
2023-04-05T08:16:01.943Z,12.40
2023-04-05T08:18:28.530Z,15.47
2023-04-05T08:20:55.785Z,12.67
2023-04-05T08:23:22.724Z,11.90
2023-04-05T08:25:49.536Z,19.53
2023-04-05T08:28:16.413Z,11.07
2023-04-05T08:30:43.102Z,9.90
2023-04-05T08:33:09.727Z,10.53
2023-04-05T08:35:37.777Z,10.00
2023-04-05T08:38:07.696Z,11.30
2023-04-05T08:40:43.989Z,9.83
2023-04-05T08:43:15.537Z,9.23
2023-04-05T08:45:50.973Z,8.77
2023-04-05T08:48:18.189Z,9.97
2023-04-05T08:50:53.855Z,12.53
2023-04-05T08:53:20.551Z,12.47
2023-04-05T08:55:54.134Z,8.70
2023-04-05T08:58:22.238Z,8.70
2023-04-05T09:00:50.604Z,9.50
2023-04-05T09:03:23.220Z,9.57
2023-04-05T09:05:51.528Z,7.13
2023-04-05T09:08:18.281Z,8.43
2023-04-05T09:10:44.645Z,8.13
2023-04-05T09:13:10.998Z,7.17
2023-04-05T09:15:38.529Z,7.93
2023-04-05T09:18:12.423Z,7.87
2023-04-05T09:20:45.793Z,8.23
2023-04-05T09:23:12.270Z,7.67
2023-04-05T09:25:39.873Z,7.90
2023-04-05T09:28:07.235Z,10.03
2023-04-05T09:30:35.591Z,8.17
2023-04-05T09:33:03.314Z,9.60
2023-04-05T09:35:32.308Z,9.23
2023-04-05T09:38:01.325Z,9.90
2023-04-05T09:40:47.090Z,7.90
2023-04-05T09:43:36.983Z,7.83
2023-04-05T09:46:03.510Z,8.80
2023-04-05T09:48:49.755Z,7.97
2023-04-05T09:51:17.134Z,7.73
2023-04-05T09:54:06.671Z,8.37
2023-04-05T09:56:38.356Z,8.60
2023-04-05T09:59:10.947Z,7.70
2023-04-05T10:01:41.441Z,11.00
2023-04-05T10:04:08.720Z,7.97
2023-04-05T10:06:36.596Z,8.57
2023-04-05T10:09:04.922Z,7.33
2023-04-05T10:11:33.950Z,9.27
2023-04-05T10:14:02.328Z,8.63
2023-04-05T10:16:30.228Z,7.93
2023-04-05T10:18:56.639Z,8.67
2023-04-05T10:21:26.058Z,8.13
2023-04-05T10:24:05.643Z,8.67
2023-04-05T10:26:48.702Z,8.33
2023-04-05T10:29:29.511Z,7.90
2023-04-05T10:32:10.518Z,8.17
2023-04-05T10:34:48.394Z,7.50
2023-04-05T10:37:30.315Z,7.57
2023-04-05T10:40:03.156Z,7.77
2023-04-05T10:42:40.864Z,15.07
2023-04-05T10:45:11.441Z,7.97
2023-04-05T10:47:44.678Z,8.40
2023-04-05T10:50:17.701Z,7.83
2023-04-05T10:52:45.737Z,7.90
2023-04-05T10:55:12.362Z,8.03
2023-04-05T10:57:39.716Z,7.87
2023-04-05T11:00:07.781Z,7.03
2023-04-05T11:02:34.239Z,7.77
2023-04-05T11:05:04.862Z,7.27
2023-04-05T11:07:45.184Z,7.90
2023-04-05T11:10:19.064Z,8.73
2023-04-05T11:12:45.400Z,8.23
2023-04-05T11:15:30.220Z,8.40
2023-04-05T11:18:10.775Z,7.80
2023-04-05T11:20:51.739Z,8.33
2023-04-05T11:23:20.691Z,8.27
2023-04-05T11:26:03.901Z,8.43
2023-04-05T11:28:40.403Z,8.17
2023-04-05T11:31:18.213Z,8.23
2023-04-05T11:33:51.811Z,7.87
2023-04-05T11:36:47.758Z,9.00
2023-04-05T11:39:20.977Z,8.50
2023-04-05T11:41:53.506Z,7.33
2023-04-05T11:44:20.533Z,8.00
2023-04-05T11:46:46.887Z,8.67
2023-04-05T11:49:13.754Z,7.83
2023-04-05T11:51:43.835Z,7.87
2023-04-05T11:54:10.469Z,7.60
2023-04-05T11:56:37.772Z,8.07
2023-04-05T11:59:04.265Z,7.93
2023-04-05T12:01:30.628Z,8.00
2023-04-05T12:03:57.483Z,7.53
2023-04-05T12:06:26.107Z,9.63
2023-04-05T12:08:56.086Z,7.53
2023-04-05T12:11:31.046Z,7.80
2023-04-05T12:14:00.132Z,7.73
2023-04-05T12:16:27.607Z,8.90
2023-04-05T12:18:55.769Z,7.87
2023-04-05T12:21:23.018Z,9.43
2023-04-05T12:23:52.997Z,9.07
2023-04-05T12:26:20.993Z,9.13
2023-04-05T12:28:58.271Z,9.10
2023-04-05T12:31:44.847Z,9.43
2023-04-05T12:34:13.930Z,9.60
2023-04-05T12:36:45.114Z,9.77
2023-04-05T12:39:11.604Z,9.33
2023-04-05T12:41:38.167Z,7.93
2023-04-05T12:44:27.677Z,9.67
2023-04-05T12:47:03.241Z,8.73
2023-04-05T12:49:35.241Z,8.77
2023-04-05T12:52:02.820Z,8.60
2023-04-05T12:54:30.868Z,13.43
2023-04-05T12:56:57.382Z,9.80
2023-04-05T12:59:24.160Z,8.70
2023-04-05T13:01:51.165Z,8.07
2023-04-05T13:04:17.816Z,8.67
2023-04-05T13:06:47.002Z,9.23
2023-04-05T13:09:13.478Z,8.87
2023-04-05T13:11:39.812Z,9.97
2023-04-05T13:14:06.156Z,10.07
2023-04-05T13:16:32.504Z,9.80
2023-04-05T13:18:58.892Z,11.83
2023-04-05T13:21:25.729Z,11.10
2023-04-05T13:23:52.051Z,9.83
2023-04-05T13:26:18.407Z,10.13
2023-04-05T13:28:44.790Z,9.90
2023-04-05T13:31:12.078Z,9.60
2023-04-05T13:33:40.091Z,8.57
2023-04-05T13:36:06.883Z,9.93
2023-04-05T13:38:33.268Z,8.90
2023-04-05T13:40:59.596Z,9.00
2023-04-05T13:43:27.859Z,10.30
2023-04-05T13:45:54.203Z,8.67
2023-04-05T13:48:20.528Z,9.53
2023-04-05T13:50:46.892Z,8.97
2023-04-05T13:53:13.708Z,9.20
2023-04-05T13:55:40.161Z,9.27
2023-04-05T13:58:06.729Z,10.77
2023-04-05T14:00:33.240Z,10.13
2023-04-05T14:02:59.699Z,9.70
2023-04-05T14:05:26.132Z,9.70
2023-04-05T14:07:52.443Z,10.23
2023-04-05T14:10:21.725Z,8.70
2023-04-05T14:12:48.158Z,9.43
2023-04-05T14:15:14.608Z,9.80
2023-04-05T14:17:41.249Z,9.83
2023-04-05T14:20:08.125Z,9.67
2023-04-05T14:22:34.479Z,8.37
2023-04-05T14:25:00.850Z,9.37
2023-04-05T14:27:28.342Z,10.00
2023-04-05T14:29:58.314Z,9.93
2023-04-05T14:32:25.630Z,10.93
2023-04-05T14:34:52.358Z,9.57
2023-04-05T14:37:18.695Z,10.13
2023-04-05T14:39:45.169Z,9.67
2023-04-05T14:42:11.512Z,9.93
2023-04-05T14:44:38.713Z,9.83
2023-04-05T14:47:05.595Z,9.83
2023-04-05T14:49:31.944Z,9.20
2023-04-05T14:51:58.456Z,7.77
2023-04-05T14:54:24.893Z,9.50
2023-04-05T14:56:51.219Z,9.83
2023-04-05T14:59:17.665Z,9.87
2023-04-05T15:01:45.396Z,10.57
2023-04-05T15:04:11.967Z,9.13
2023-04-05T15:06:38.326Z,10.13
2023-04-05T15:09:04.685Z,9.77
2023-04-05T15:11:34.073Z,9.77
2023-04-05T15:14:00.470Z,9.13
2023-04-05T15:16:26.874Z,8.87
2023-04-05T15:18:54.616Z,9.13
2023-04-05T15:21:21.135Z,9.80
2023-04-05T15:23:48.021Z,9.70
2023-04-05T15:26:14.449Z,11.50
2023-04-05T15:28:41.046Z,8.70
2023-04-05T15:31:07.796Z,9.43
2023-04-05T15:33:34.170Z,9.80
2023-04-05T15:36:00.593Z,9.70
2023-04-05T15:38:27.257Z,9.50
2023-04-05T15:40:54.250Z,8.60
2023-04-05T15:43:20.903Z,8.40
2023-04-05T15:45:47.299Z,9.83
2023-04-05T15:48:13.788Z,8.33
2023-04-05T15:50:40.680Z,8.17
2023-04-05T15:53:07.316Z,8.70
2023-04-05T15:55:33.661Z,9.20
2023-04-05T15:58:00.211Z,8.90
2023-04-05T16:00:27.510Z,9.40
2023-04-05T16:02:56.154Z,8.83
2023-04-05T16:05:23.281Z,8.90
2023-04-05T16:07:50.009Z,7.87
2023-04-05T16:10:16.523Z,9.53
2023-04-05T16:12:42.935Z,9.77
2023-04-05T16:15:09.691Z,8.90
2023-04-05T16:17:36.551Z,8.43
2023-04-05T16:20:03.347Z,9.70
2023-04-05T16:22:30.883Z,9.90
2023-04-05T16:24:57.248Z,10.13
2023-04-05T16:27:23.632Z,9.90
2023-04-05T16:29:49.978Z,8.60
2023-04-05T16:32:16.523Z,10.27
2023-04-05T16:34:42.940Z,9.87
2023-04-05T16:37:09.288Z,10.87
2023-04-05T16:39:35.640Z,8.93
2023-04-05T16:42:02.126Z,8.60
2023-04-05T16:44:30.343Z,8.53
2023-04-05T16:46:58.073Z,9.20
2023-04-05T16:49:24.398Z,9.43
2023-04-05T16:51:50.726Z,10.37
2023-04-05T16:54:17.049Z,8.60
2023-04-05T16:56:43.510Z,10.10
2023-04-05T16:59:10.088Z,8.33
2023-04-05T17:01:36.678Z,8.90
2023-04-05T17:04:03.705Z,8.70
2023-04-05T17:06:30.008Z,8.43
2023-04-05T17:08:56.505Z,8.90
2023-04-05T17:11:22.914Z,10.17
2023-04-05T17:13:49.695Z,8.87
2023-04-05T17:16:16.491Z,8.50
2023-04-05T17:18:42.943Z,11.50
2023-04-05T17:21:09.344Z,9.13
2023-04-05T17:23:35.714Z,7.83
2023-04-05T17:26:02.071Z,8.23
2023-04-05T17:28:28.508Z,10.07
2023-04-05T17:30:55.762Z,8.60
2023-04-05T17:33:22.126Z,9.87
2023-04-05T17:35:48.841Z,8.60
2023-04-05T17:38:15.200Z,9.83
2023-04-05T17:40:41.733Z,10.13
2023-04-05T17:43:08.665Z,10.93
2023-04-05T17:45:34.986Z,9.27
2023-04-05T17:48:01.433Z,8.63
2023-04-05T17:50:27.905Z,7.40
2023-04-05T17:52:54.252Z,9.03
2023-04-05T17:55:20.664Z,9.53
2023-04-05T17:57:48.266Z,9.87
2023-04-05T18:00:15.609Z,9.27
2023-04-05T18:02:42.020Z,9.83
2023-04-05T18:05:10.031Z,9.10
2023-04-05T18:07:37.763Z,8.73
2023-04-05T18:10:05.492Z,10.40
2023-04-05T18:12:33.315Z,8.77
2023-04-05T18:14:59.830Z,9.67
2023-04-05T18:17:26.254Z,10.07
2023-04-05T18:19:53.388Z,9.17
2023-04-05T18:22:20.177Z,9.17
2023-04-05T18:24:46.502Z,9.33
2023-04-05T18:27:12.847Z,9.43
2023-04-05T18:29:39.580Z,8.07
2023-04-05T18:32:07.010Z,7.97
2023-04-05T18:34:34.586Z,9.07
2023-04-05T18:37:01.544Z,8.83
2023-04-05T18:39:27.965Z,10.63
2023-04-05T18:41:54.840Z,9.93
2023-04-05T18:44:21.202Z,10.47
2023-04-05T18:46:48.788Z,9.83
2023-04-05T18:49:18.944Z,9.50
2023-04-05T18:51:45.561Z,11.30
2023-04-05T18:54:13.692Z,10.37
2023-04-05T18:56:40.456Z,9.60
2023-04-05T18:59:07.040Z,10.03
2023-04-05T19:01:33.676Z,10.73
2023-04-05T19:04:00.479Z,16.30
2023-04-05T19:06:27.920Z,12.20
2023-04-05T19:08:54.235Z,12.07
2023-04-05T19:11:21.909Z,11.70
2023-04-05T19:13:48.250Z,11.80
2023-04-05T19:16:17.192Z,11.17
2023-04-05T19:18:43.995Z,12.63
2023-04-05T19:21:10.354Z,11.37
2023-04-05T19:23:36.856Z,12.00
2023-04-05T19:26:03.262Z,13.70
2023-04-05T19:28:29.622Z,11.37
2023-04-05T19:30:56.639Z,10.80
2023-04-05T19:33:23.279Z,14.37
2023-04-05T19:35:50.070Z,11.10
2023-04-05T19:38:16.505Z,11.50
2023-04-05T19:40:43.170Z,11.87
2023-04-05T19:43:11.333Z,11.77
2023-04-05T19:45:37.656Z,12.23
2023-04-05T19:48:27.526Z,11.67
2023-04-05T19:50:56.292Z,12.90
2023-04-05T19:53:48.543Z,11.83
2023-04-05T19:56:20.185Z,12.43
2023-04-05T19:58:48.423Z,13.10
2023-04-05T20:01:36.651Z,11.40
2023-04-05T20:04:17.256Z,14.07
2023-04-05T20:06:52.818Z,16.80
2023-04-05T20:09:20.606Z,12.77
2023-04-05T20:11:54.192Z,13.20
2023-04-05T20:14:26.823Z,11.40
2023-04-05T20:16:53.195Z,11.67
2023-04-05T20:19:27.857Z,11.77
2023-04-05T20:21:54.182Z,11.50
2023-04-05T20:24:24.100Z,13.47
2023-04-05T20:26:53.775Z,12.10
2023-04-05T20:29:25.681Z,22.77
2023-04-05T20:31:52.294Z,14.83
2023-04-05T20:34:27.996Z,17.73
2023-04-05T20:37:03.338Z,12.33
2023-04-05T20:39:30.845Z,23.77
2023-04-05T20:41:58.350Z,22.43
2023-04-05T20:44:25.776Z,13.37
2023-04-05T20:46:54.076Z,15.97
2023-04-05T20:49:22.225Z,21.57
2023-04-05T20:51:50.497Z,23.63
2023-04-05T20:54:17.845Z,16.27
2023-04-05T20:56:44.306Z,14.10
2023-04-05T20:59:11.231Z,14.37
2023-04-05T21:01:38.493Z,17.23
2023-04-05T21:04:05.560Z,18.63
2023-04-05T21:06:32.040Z,21.13
2023-04-05T21:08:58.350Z,16.30
2023-04-05T21:11:24.676Z,18.00
2023-04-05T21:13:50.985Z,15.67
2023-04-05T21:16:17.359Z,21.53
2023-04-05T21:18:43.744Z,15.57
2023-04-05T21:21:10.201Z,18.17
2023-04-05T21:23:36.569Z,17.07
2023-04-05T21:26:04.386Z,16.57
2023-04-05T21:28:31.043Z,23.87
2023-04-05T21:30:57.518Z,20.30
2023-04-05T21:33:24.121Z,20.57
2023-04-05T21:35:50.955Z,21.80
2023-04-05T21:38:17.902Z,25.30
2023-04-05T21:40:45.834Z,20.43
2023-04-05T21:43:13.194Z,28.40
2023-04-05T21:45:39.636Z,25.63
2023-04-05T21:48:06.133Z,26.13
2023-04-05T21:50:32.594Z,28.40
2023-04-05T21:52:58.939Z,22.77
2023-04-05T21:55:25.267Z,29.30
2023-04-05T21:57:51.728Z,26.97
2023-04-05T22:00:18.529Z,27.63
2023-04-05T22:02:45.226Z,27.03
2023-04-05T22:05:13.058Z,25.33
2023-04-05T22:07:42.082Z,29.00
2023-04-05T22:10:08.999Z,29.37
2023-04-05T22:12:35.511Z,31.77
2023-04-05T22:15:01.855Z,30.83
2023-04-05T22:17:28.226Z,35.40
2023-04-05T22:19:54.556Z,33.73
2023-04-05T22:22:21.111Z,32.50
2023-04-05T22:24:48.812Z,30.23
2023-04-05T22:27:15.188Z,30.90
2023-04-05T22:29:41.538Z,26.10
2023-04-05T22:32:07.995Z,27.30
2023-04-05T22:34:34.410Z,40.87
2023-04-05T22:37:00.920Z,25.00
2023-04-05T22:39:27.586Z,27.63
2023-04-05T22:41:54.096Z,34.50
2023-04-05T22:44:21.546Z,28.40
2023-04-05T22:46:47.858Z,37.60
2023-04-05T22:49:14.163Z,28.20
2023-04-05T22:51:40.653Z,24.70
2023-04-05T22:54:07.108Z,23.37
2023-04-05T22:56:33.442Z,21.27
2023-04-05T22:58:59.858Z,19.27
2023-04-05T23:01:26.474Z,21.87
2023-04-05T23:03:52.828Z,27.70
2023-04-05T23:06:19.133Z,23.60
2023-04-05T23:08:45.450Z,19.17
2023-04-05T23:11:11.773Z,18.57
2023-04-05T23:13:38.113Z,22.20
2023-04-05T23:16:04.863Z,19.17
2023-04-05T23:18:31.403Z,23.83
2023-04-05T23:20:57.726Z,25.77
2023-04-05T23:23:24.096Z,38.37
2023-04-05T23:25:51.020Z,25.53
2023-04-05T23:28:17.321Z,27.77
2023-04-05T23:30:43.678Z,27.40
2023-04-05T23:33:12.973Z,21.40
2023-04-05T23:35:39.882Z,22.23
2023-04-05T23:38:07.156Z,25.77
2023-04-05T23:40:33.553Z,24.37
2023-04-05T23:42:59.903Z,24.70
2023-04-05T23:45:26.690Z,26.03
2023-04-05T23:47:54.388Z,26.37
2023-04-05T23:50:21.036Z,26.53
2023-04-05T23:52:47.355Z,24.33
2023-04-05T23:55:13.788Z,23.40
2023-04-05T23:57:40.474Z,27.30
